createdAt,value
2017-09-21T00:00:50.459Z,0
2017-09-21T00:01:50.452Z,0
2017-09-21T00:02:50.535Z,0
2017-09-21T00:03:50.489Z,0
2017-09-21T00:04:50.524Z,0
2017-09-21T00:05:50.477Z,0
2017-09-21T00:06:50.528Z,0
2017-09-21T00:07:50.462Z,0
2017-09-21T00:08:50.460Z,0
2017-09-21T00:09:50.502Z,0
2017-09-21T00:10:50.530Z,0
2017-09-21T00:11:50.465Z,0
2017-09-21T00:12:50.465Z,0
2017-09-21T00:13:50.534Z,0
2017-09-21T00:14:50.503Z,0
2017-09-21T00:15:50.486Z,0
2017-09-21T00:16:50.412Z,0
2017-09-21T00:17:50.435Z,0
2017-09-21T00:18:50.411Z,0
2017-09-21T00:19:50.432Z,0
2017-09-21T00:20:50.460Z,0
2017-09-21T00:21:50.465Z,0
2017-09-21T00:22:50.450Z,0
2017-09-21T00:23:50.461Z,0
2017-09-21T00:24:50.462Z,0
2017-09-21T00:25:50.504Z,0
2017-09-21T00:26:50.418Z,0
2017-09-21T00:27:50.507Z,0
2017-09-21T00:28:50.420Z,0
2017-09-21T00:29:50.436Z,0
2017-09-21T00:30:50.511Z,0
2017-09-21T00:31:50.453Z,0
2017-09-21T00:32:50.420Z,0
2017-09-21T00:33:50.468Z,0
2017-09-21T00:34:50.465Z,0
2017-09-21T00:35:50.427Z,0
2017-09-21T00:36:50.427Z,0
2017-09-21T00:37:50.499Z,0
2017-09-21T00:38:50.540Z,0
2017-09-21T00:39:50.482Z,0
2017-09-21T00:40:50.502Z,0
2017-09-21T00:41:50.499Z,0
2017-09-21T00:42:50.506Z,0
2017-09-21T00:43:50.672Z,0
2017-09-21T00:44:50.546Z,0
2017-09-21T00:45:50.485Z,0
2017-09-21T00:46:50.548Z,0
2017-09-21T00:47:50.464Z,0
2017-09-21T00:48:50.464Z,0
2017-09-21T00:49:50.504Z,0
2017-09-21T00:50:50.464Z,0
2017-09-21T00:51:50.490Z,0
2017-09-21T00:52:50.544Z,0
2017-09-21T00:53:50.485Z,0
2017-09-21T00:54:50.453Z,0
2017-09-21T00:55:50.486Z,0
2017-09-21T00:56:50.465Z,0
2017-09-21T00:57:50.521Z,0
2017-09-21T00:58:50.572Z,0
2017-09-21T00:59:50.524Z,0
2017-09-21T01:00:50.521Z,0
2017-09-21T01:01:50.525Z,0
2017-09-21T01:02:50.569Z,0
2017-09-21T01:03:50.586Z,0
2017-09-21T01:04:50.525Z,0
2017-09-21T01:05:50.586Z,0
2017-09-21T01:06:50.526Z,0
2017-09-21T01:07:50.519Z,0
2017-09-21T01:08:50.520Z,0
2017-09-21T01:09:50.502Z,0
2017-09-21T01:10:50.563Z,0
2017-09-21T01:11:50.569Z,0
2017-09-21T01:12:50.478Z,0
2017-09-21T01:13:50.466Z,0
2017-09-21T01:14:50.481Z,0
2017-09-21T01:15:50.506Z,0
2017-09-21T01:16:50.577Z,0
2017-09-21T01:17:50.529Z,0
2017-09-21T01:18:50.468Z,0
2017-09-21T01:19:50.500Z,0
2017-09-21T01:20:50.532Z,0
2017-09-21T01:21:50.469Z,0
2017-09-21T01:22:50.551Z,0
2017-09-21T01:23:50.470Z,0
2017-09-21T01:24:50.558Z,0
2017-09-21T01:25:50.563Z,0
2017-09-21T01:26:50.503Z,0
2017-09-21T01:27:50.544Z,0
2017-09-21T01:28:50.636Z,0
2017-09-21T01:29:50.541Z,0
2017-09-21T01:30:50.603Z,0
2017-09-21T01:31:50.539Z,0
2017-09-21T01:32:50.590Z,0
2017-09-21T01:33:50.590Z,0
2017-09-21T01:34:50.608Z,0
2017-09-21T01:35:50.545Z,0
2017-09-21T01:36:50.609Z,0
2017-09-21T01:37:50.556Z,0
2017-09-21T01:38:50.537Z,0
2017-09-21T01:39:50.589Z,0
2017-09-21T01:40:50.539Z,0
2017-09-21T01:41:50.521Z,0
2017-09-21T01:42:50.546Z,0
2017-09-21T01:43:50.598Z,0
2017-09-21T01:44:50.499Z,0
2017-09-21T01:45:50.595Z,0
2017-09-21T01:46:50.513Z,0
2017-09-21T01:47:50.583Z,0
2017-09-21T01:48:50.587Z,0
2017-09-21T01:49:50.584Z,0
2017-09-21T01:50:50.497Z,0
2017-09-21T01:51:50.547Z,0
2017-09-21T01:52:50.544Z,0
2017-09-21T01:53:50.556Z,0
2017-09-21T01:54:50.552Z,0
2017-09-21T01:55:50.529Z,0
2017-09-21T01:56:50.589Z,0
2017-09-21T01:57:50.560Z,0
2017-09-21T01:58:50.607Z,0
2017-09-21T01:59:50.560Z,0
2017-09-21T02:00:50.560Z,0
2017-09-21T02:01:50.606Z,0
2017-09-21T02:02:50.619Z,0
2017-09-21T02:03:50.621Z,0
2017-09-21T02:04:50.572Z,0
2017-09-21T02:05:50.608Z,0
2017-09-21T02:06:50.627Z,0
2017-09-21T02:07:50.565Z,0
2017-09-21T02:08:50.569Z,0
2017-09-21T02:09:50.610Z,0
2017-09-21T02:10:50.612Z,0
2017-09-21T02:11:50.629Z,0
2017-09-21T02:12:50.562Z,0
2017-09-21T02:13:50.607Z,0
2017-09-21T02:14:50.617Z,0
2017-09-21T02:15:50.628Z,0
2017-09-21T02:16:50.614Z,0
2017-09-21T02:17:50.632Z,0
2017-09-21T02:18:50.635Z,0
2017-09-21T02:19:50.632Z,0
2017-09-21T02:20:50.609Z,0
2017-09-21T02:21:50.634Z,0
2017-09-21T02:22:50.578Z,0
2017-09-21T02:23:50.575Z,0
2017-09-21T02:24:50.633Z,0
2017-09-21T02:25:50.575Z,0
2017-09-21T02:26:50.639Z,0
2017-09-21T02:27:50.579Z,0
2017-09-21T02:28:50.574Z,0
2017-09-21T02:29:50.637Z,0
2017-09-21T02:30:50.576Z,0
2017-09-21T02:31:50.624Z,0
2017-09-21T02:32:50.642Z,0
2017-09-21T02:33:50.577Z,0
2017-09-21T02:34:50.628Z,0
2017-09-21T02:35:50.642Z,0
2017-09-21T02:36:50.630Z,0
2017-09-21T02:37:50.581Z,0
2017-09-21T02:38:50.645Z,0
2017-09-21T02:39:50.583Z,0
2017-09-21T02:40:50.643Z,0
2017-09-21T02:41:50.587Z,0
2017-09-21T02:42:50.585Z,0
2017-09-21T02:43:50.634Z,0
2017-09-21T02:44:50.594Z,0
2017-09-21T02:45:50.652Z,0
2017-09-21T02:46:50.592Z,0
2017-09-21T02:47:50.638Z,0
2017-09-21T02:48:50.588Z,0
2017-09-21T02:49:50.650Z,0
2017-09-21T02:50:50.591Z,0
2017-09-21T02:51:50.638Z,0
2017-09-21T02:52:50.601Z,0
2017-09-21T02:53:50.640Z,0
2017-09-21T02:54:50.597Z,0
2017-09-21T02:55:50.655Z,0
2017-09-21T02:56:50.592Z,0
2017-09-21T02:57:50.559Z,0
2017-09-21T02:58:50.508Z,0
2017-09-21T02:59:50.514Z,0
2017-09-21T03:00:50.513Z,0
2017-09-21T03:01:50.557Z,0
2017-09-21T03:02:50.516Z,0
2017-09-21T03:03:50.506Z,0
2017-09-21T03:04:50.518Z,0
2017-09-21T03:05:50.609Z,0
2017-09-21T03:06:50.552Z,0
2017-09-21T03:07:50.560Z,0
2017-09-21T03:08:50.569Z,0
2017-09-21T03:09:50.612Z,0
2017-09-21T03:10:50.574Z,0
2017-09-21T03:11:50.572Z,0
2017-09-21T03:12:50.571Z,0
2017-09-21T03:13:50.550Z,0
2017-09-21T03:14:50.547Z,0
2017-09-21T03:15:50.697Z,0
2017-09-21T03:16:50.619Z,0
2017-09-21T03:17:50.667Z,0
2017-09-21T03:18:50.652Z,0
2017-09-21T03:19:50.608Z,0
2017-09-21T03:20:50.655Z,0
2017-09-21T03:21:50.608Z,0
2017-09-21T03:22:50.679Z,0
2017-09-21T03:23:50.612Z,0
2017-09-21T03:24:50.673Z,0
2017-09-21T03:25:50.610Z,0
2017-09-21T03:26:50.673Z,0
2017-09-21T03:27:50.633Z,0
2017-09-21T03:28:50.559Z,0
2017-09-21T03:29:50.728Z,0
2017-09-21T03:30:50.641Z,0
2017-09-21T03:31:50.563Z,0
2017-09-21T03:32:50.615Z,0
2017-09-21T03:33:50.614Z,0
2017-09-21T03:34:50.547Z,0
2017-09-21T03:35:50.603Z,0
2017-09-21T03:36:50.582Z,0
2017-09-21T03:37:50.619Z,0
2017-09-21T03:38:50.682Z,0
2017-09-21T03:39:50.621Z,0
2017-09-21T03:40:50.676Z,0
2017-09-21T03:41:50.621Z,0
2017-09-21T03:42:50.682Z,0
2017-09-21T03:43:50.784Z,0
2017-09-21T03:44:50.686Z,0
2017-09-21T03:45:50.626Z,0
2017-09-21T03:46:50.683Z,0
2017-09-21T03:47:50.554Z,0
2017-09-21T03:48:50.576Z,0
2017-09-21T03:49:50.525Z,0
2017-09-21T03:50:50.612Z,0
2017-09-21T03:51:50.526Z,0
2017-09-21T03:52:50.563Z,0
2017-09-21T03:53:50.554Z,0
2017-09-21T03:54:50.506Z,0
2017-09-21T03:55:50.583Z,0
2017-09-21T03:56:50.584Z,0
2017-09-21T03:57:50.690Z,0
2017-09-21T03:58:50.630Z,0
2017-09-21T03:59:50.629Z,0
2017-09-21T04:00:50.693Z,0
2017-09-21T04:01:50.630Z,0
2017-09-21T04:02:50.695Z,0
2017-09-21T04:03:50.636Z,0
2017-09-21T04:04:50.639Z,0
2017-09-21T04:05:50.697Z,0
2017-09-21T04:06:50.639Z,0
2017-09-21T04:07:50.599Z,0
2017-09-21T04:08:50.656Z,0
2017-09-21T04:09:50.602Z,0
2017-09-21T04:10:50.593Z,0
2017-09-21T04:11:50.571Z,0
2017-09-21T04:12:50.605Z,0
2017-09-21T04:13:50.638Z,0
2017-09-21T04:14:50.604Z,0
2017-09-21T04:15:50.573Z,0
2017-09-21T04:16:50.611Z,0
2017-09-21T04:17:50.673Z,0
2017-09-21T04:18:50.681Z,0
2017-09-21T04:19:50.636Z,0
2017-09-21T04:20:50.608Z,0
2017-09-21T04:21:50.654Z,0
2017-09-21T04:22:50.590Z,0
2017-09-21T04:23:50.635Z,0
2017-09-21T04:24:50.615Z,0
2017-09-21T04:25:50.648Z,0
2017-09-21T04:26:50.693Z,0
2017-09-21T04:27:50.650Z,0
2017-09-21T04:28:50.705Z,0
2017-09-21T04:29:50.644Z,0
2017-09-21T04:30:50.714Z,0
2017-09-21T04:31:50.648Z,0
2017-09-21T04:32:50.698Z,0
2017-09-21T04:33:50.656Z,0
2017-09-21T04:34:50.718Z,4
2017-09-21T04:35:50.651Z,4
2017-09-21T04:36:50.711Z,0
2017-09-21T04:37:50.640Z,4
2017-09-21T04:38:50.644Z,8
2017-09-21T04:39:50.680Z,8
2017-09-21T04:40:50.603Z,8
2017-09-21T04:41:50.630Z,8
2017-09-21T04:42:50.683Z,16
2017-09-21T04:43:50.691Z,16
2017-09-21T04:44:50.647Z,20
2017-09-21T04:45:50.665Z,20
2017-09-21T04:46:50.666Z,24
2017-09-21T04:47:50.663Z,28
2017-09-21T04:48:50.707Z,32
2017-09-21T04:49:50.657Z,40
2017-09-21T04:50:50.713Z,48
2017-09-21T04:51:50.663Z,52
2017-09-21T04:52:50.727Z,64
2017-09-21T04:53:50.708Z,76
2017-09-21T04:54:50.728Z,88
2017-09-21T04:55:50.661Z,100
2017-09-21T04:56:50.725Z,120
2017-09-21T04:57:50.665Z,140
2017-09-21T04:58:50.713Z,156
2017-09-21T04:59:50.720Z,164
2017-09-21T05:00:50.668Z,176
2017-09-21T05:01:50.728Z,196
2017-09-21T05:02:50.713Z,224
2017-09-21T05:03:50.665Z,252
2017-09-21T05:04:50.717Z,276
2017-09-21T05:05:50.721Z,300
2017-09-21T05:06:50.670Z,328
2017-09-21T05:07:50.639Z,364
2017-09-21T05:08:50.605Z,388
2017-09-21T05:09:50.602Z,432
2017-09-21T05:10:50.692Z,452
2017-09-21T05:11:50.609Z,492
2017-09-21T05:12:50.645Z,536
2017-09-21T05:13:50.675Z,544
2017-09-21T05:14:50.599Z,588
2017-09-21T05:15:50.689Z,628
2017-09-21T05:16:50.629Z,704
2017-09-21T05:17:50.740Z,728
2017-09-21T05:18:50.678Z,748
2017-09-21T05:19:50.735Z,768
2017-09-21T05:20:50.680Z,840
2017-09-21T05:21:50.738Z,900
2017-09-21T05:22:50.739Z,936
2017-09-21T05:23:50.679Z,908
2017-09-21T05:24:50.729Z,872
2017-09-21T05:25:50.746Z,912
2017-09-21T05:26:50.685Z,976
2017-09-21T05:27:50.655Z,1092
2017-09-21T05:28:50.698Z,1124
2017-09-21T05:29:50.649Z,1196
2017-09-21T05:30:50.728Z,1288
2017-09-21T05:31:50.674Z,1300
2017-09-21T05:32:50.729Z,1388
2017-09-21T05:33:50.679Z,1596
2017-09-21T05:34:50.680Z,1792
2017-09-21T05:35:50.812Z,1824
2017-09-21T05:36:50.695Z,1908
2017-09-21T05:37:50.638Z,1928
2017-09-21T05:38:50.618Z,1928
2017-09-21T05:39:50.648Z,2096
2017-09-21T05:40:50.639Z,2232
2017-09-21T05:41:50.607Z,2440
2017-09-21T05:42:50.640Z,2500
2017-09-21T05:43:50.622Z,2516
2017-09-21T05:44:50.633Z,2536
2017-09-21T05:45:50.645Z,2644
2017-09-21T05:46:50.621Z,2692
2017-09-21T05:47:50.733Z,2800
2017-09-21T05:48:50.737Z,2904
2017-09-21T05:49:50.647Z,2988
2017-09-21T05:50:50.645Z,3036
2017-09-21T05:51:50.748Z,3260
2017-09-21T05:52:50.769Z,3296
2017-09-21T05:53:50.738Z,3520
2017-09-21T05:54:50.742Z,3572
2017-09-21T05:55:50.700Z,3624
2017-09-21T05:56:50.759Z,3704
2017-09-21T05:57:50.765Z,3680
2017-09-21T05:58:50.698Z,3768
2017-09-21T05:59:50.680Z,3956
2017-09-21T06:00:50.697Z,3736
2017-09-21T06:01:50.706Z,3816
2017-09-21T06:02:50.699Z,3876
2017-09-21T06:03:50.694Z,3960
2017-09-21T06:04:50.750Z,4308
2017-09-21T06:05:50.678Z,4592
2017-09-21T06:06:50.703Z,4772
2017-09-21T06:07:50.670Z,5068
2017-09-21T06:08:50.668Z,5068
2017-09-21T06:09:50.643Z,4908
2017-09-21T06:10:50.703Z,4828
2017-09-21T06:11:50.640Z,5228
2017-09-21T06:12:50.725Z,5680
2017-09-21T06:13:50.641Z,5892
2017-09-21T06:14:50.676Z,6036
2017-09-21T06:15:50.638Z,6300
2017-09-21T06:16:50.644Z,6316
2017-09-21T06:17:50.772Z,6324
2017-09-21T06:18:50.707Z,6052
2017-09-21T06:19:50.720Z,6140
2017-09-21T06:20:50.761Z,6172
2017-09-21T06:21:50.712Z,6380
2017-09-21T06:22:50.759Z,6332
2017-09-21T06:23:50.704Z,6432
2017-09-21T06:24:50.713Z,6796
2017-09-21T06:25:50.706Z,6800
2017-09-21T06:26:50.672Z,7008
2017-09-21T06:27:50.641Z,7296
2017-09-21T06:28:50.664Z,7340
2017-09-21T06:29:50.642Z,7452
2017-09-21T06:30:50.642Z,7996
2017-09-21T06:31:50.642Z,8616
2017-09-21T06:32:50.668Z,8664
2017-09-21T06:33:50.659Z,8188
2017-09-21T06:34:50.671Z,8456
2017-09-21T06:35:50.662Z,8572
2017-09-21T06:36:50.666Z,8672
2017-09-21T06:37:50.785Z,8748
2017-09-21T06:38:50.690Z,9208
2017-09-21T06:39:50.716Z,9428
2017-09-21T06:40:50.700Z,9460
2017-09-21T06:41:50.722Z,9836
2017-09-21T06:42:50.774Z,9780
2017-09-21T06:43:50.703Z,10204
2017-09-21T06:44:50.798Z,10356
2017-09-21T06:45:50.787Z,10528
2017-09-21T06:46:50.677Z,10708
2017-09-21T06:47:50.730Z,11752
2017-09-21T06:48:50.777Z,11336
2017-09-21T06:49:50.707Z,11060
2017-09-21T06:50:50.730Z,11164
2017-09-21T06:51:50.799Z,11576
2017-09-21T06:52:50.755Z,11336
2017-09-21T06:53:50.710Z,11960
2017-09-21T06:54:50.739Z,12368
2017-09-21T06:55:50.684Z,12496
2017-09-21T06:56:50.732Z,12656
2017-09-21T06:57:50.740Z,12728
2017-09-21T06:58:50.725Z,12632
2017-09-21T06:59:50.744Z,13320
2017-09-21T07:00:50.725Z,13272
2017-09-21T07:01:50.748Z,13568
2017-09-21T07:02:50.774Z,13320
2017-09-21T07:03:50.711Z,13312
2017-09-21T07:04:50.773Z,13296
2017-09-21T07:05:50.682Z,13708
2017-09-21T07:06:50.706Z,14208
2017-09-21T07:07:50.748Z,14460
2017-09-21T07:08:50.664Z,15344
2017-09-21T07:09:50.707Z,15832
2017-09-21T07:10:50.659Z,15500
2017-09-21T07:11:50.689Z,15644
2017-09-21T07:12:50.707Z,15780
2017-09-21T07:13:50.682Z,15764
2017-09-21T07:14:50.704Z,16104
2017-09-21T07:15:50.748Z,15392
2017-09-21T07:16:50.704Z,15416
2017-09-21T07:17:50.758Z,15688
2017-09-21T07:18:50.696Z,16884
2017-09-21T07:19:50.796Z,17416
2017-09-21T07:20:50.764Z,18256
2017-09-21T07:21:50.821Z,19320
2017-09-21T07:22:50.747Z,18820
2017-09-21T07:23:50.746Z,17616
2017-09-21T07:24:50.752Z,16348
2017-09-21T07:25:50.720Z,16140
2017-09-21T07:26:50.793Z,17188
2017-09-21T07:27:50.794Z,16736
2017-09-21T07:28:50.726Z,16164
2017-09-21T07:29:50.715Z,16404
2017-09-21T07:30:50.725Z,16624
2017-09-21T07:31:50.732Z,16844
2017-09-21T07:32:50.758Z,17120
2017-09-21T07:33:50.750Z,17580
2017-09-21T07:34:50.773Z,18224
2017-09-21T07:35:50.718Z,19168
2017-09-21T07:36:50.789Z,19036
2017-09-21T07:37:50.690Z,17908
2017-09-21T07:38:50.692Z,17984
2017-09-21T07:39:50.756Z,18868
2017-09-21T07:40:50.692Z,19264
2017-09-21T07:41:50.724Z,19760
2017-09-21T07:42:50.694Z,20084
2017-09-21T07:43:50.722Z,20644
2017-09-21T07:44:50.728Z,20620
2017-09-21T07:45:50.699Z,20828
2017-09-21T07:46:50.727Z,21888
2017-09-21T07:47:50.699Z,22016
2017-09-21T07:48:50.715Z,22112
2017-09-21T07:49:50.774Z,23136
2017-09-21T07:50:50.731Z,24128
2017-09-21T07:51:50.769Z,24768
2017-09-21T07:52:50.755Z,24320
2017-09-21T07:53:50.772Z,24384
2017-09-21T07:54:50.733Z,23968
2017-09-21T07:55:50.734Z,25120
2017-09-21T07:56:50.756Z,26368
2017-09-21T07:57:50.784Z,25792
2017-09-21T07:58:50.778Z,25024
2017-09-21T07:59:50.762Z,24096
2017-09-21T08:00:50.836Z,24768
2017-09-21T08:01:50.769Z,25344
2017-09-21T08:02:50.741Z,22112
2017-09-21T08:03:50.752Z,22176
2017-09-21T08:04:50.845Z,22304
2017-09-21T08:05:50.829Z,23808
2017-09-21T08:06:50.770Z,23008
2017-09-21T08:07:50.778Z,21664
2017-09-21T08:08:50.841Z,21536
2017-09-21T08:09:50.754Z,22016
2017-09-21T08:10:50.726Z,21216
2017-09-21T08:11:50.826Z,21056
2017-09-21T08:12:50.776Z,21568
2017-09-21T08:13:50.757Z,24064
2017-09-21T08:14:50.870Z,26304
2017-09-21T08:15:50.819Z,26624
2017-09-21T08:16:50.795Z,26016
2017-09-21T08:17:50.759Z,27072
2017-09-21T08:18:50.824Z,29152
2017-09-21T08:19:50.758Z,31136
2017-09-21T08:20:50.794Z,33344
2017-09-21T08:21:50.759Z,34656
2017-09-21T08:22:50.781Z,32832
2017-09-21T08:23:50.813Z,31680
2017-09-21T08:24:50.735Z,29952
2017-09-21T08:25:50.730Z,28640
2017-09-21T08:26:50.778Z,29088
2017-09-21T08:27:50.829Z,29888
2017-09-21T08:28:50.785Z,30208
2017-09-21T08:29:50.766Z,29344
2017-09-21T08:30:50.797Z,28480
2017-09-21T08:31:50.787Z,28032
2017-09-21T08:32:50.742Z,28416
2017-09-21T08:33:50.769Z,28736
2017-09-21T08:34:50.789Z,29568
2017-09-21T08:35:50.791Z,30080
2017-09-21T08:36:50.793Z,29280
2017-09-21T08:37:50.858Z,28160
2017-09-21T08:38:50.790Z,28000
2017-09-21T08:39:50.801Z,29568
2017-09-21T08:40:50.793Z,33248
2017-09-21T08:41:50.773Z,35392
2017-09-21T08:42:50.798Z,35488
2017-09-21T08:43:50.774Z,34688
2017-09-21T08:44:50.857Z,33984
2017-09-21T08:45:50.860Z,33536
2017-09-21T08:46:50.793Z,33856
2017-09-21T08:47:50.846Z,34464
2017-09-21T08:48:50.759Z,34976
2017-09-21T08:49:50.807Z,35648
2017-09-21T08:50:50.828Z,36608
2017-09-21T08:51:50.763Z,38368
2017-09-21T08:52:50.846Z,39200
2017-09-21T08:53:50.778Z,38784
2017-09-21T08:54:50.776Z,39136
2017-09-21T08:55:50.780Z,39936
2017-09-21T08:56:50.794Z,39584
2017-09-21T08:57:50.747Z,39936
2017-09-21T08:58:50.746Z,41568
2017-09-21T08:59:50.773Z,41888
2017-09-21T09:00:50.796Z,42048
2017-09-21T09:02:50.842Z,44832
2017-09-21T09:03:50.746Z,44608
2017-09-21T09:04:50.837Z,44544
2017-09-21T09:05:50.817Z,45312
2017-09-21T09:06:50.839Z,46496
2017-09-21T09:07:50.859Z,46432
2017-09-21T09:08:50.773Z,47168
2017-09-21T09:09:50.858Z,49024
2017-09-21T09:10:50.809Z,50912
2017-09-21T09:11:50.777Z,53216
2017-09-21T09:12:50.756Z,52544
2017-09-21T09:13:50.855Z,52768
2017-09-21T09:14:50.782Z,51936
2017-09-21T09:15:50.785Z,49696
2017-09-21T09:16:50.790Z,47392
2017-09-21T09:17:50.845Z,45696
2017-09-21T09:18:50.808Z,45984
2017-09-21T09:19:50.847Z,46848
2017-09-21T09:20:50.808Z,49024
2017-09-21T09:21:50.850Z,50592
2017-09-21T09:22:50.758Z,50688
2017-09-21T09:23:50.813Z,49344
2017-09-21T09:24:50.832Z,47968
2017-09-21T09:25:50.783Z,48864
2017-09-21T09:26:50.785Z,51712
2017-09-21T09:27:50.857Z,53760
2017-09-21T09:28:50.712Z,52992
2017-09-21T09:29:50.789Z,57504
2017-09-21T09:30:50.781Z,63008
2017-09-21T09:31:50.767Z,64544
2017-09-21T09:32:50.759Z,67008
2017-09-21T09:33:50.751Z,64736
2017-09-21T09:34:50.790Z,66080
2017-09-21T09:35:50.840Z,60800
2017-09-21T09:36:50.759Z,60544
2017-09-21T09:37:50.751Z,63872
2017-09-21T09:38:50.763Z,93408
2017-09-21T09:39:50.758Z,79168
2017-09-21T09:40:50.670Z,112704
2017-09-21T09:41:50.762Z,117632
2017-09-21T09:42:50.738Z,119552
2017-09-21T09:43:50.753Z,116192
2017-09-21T09:44:50.676Z,61088
2017-09-21T09:45:50.739Z,57120
2017-09-21T09:46:50.765Z,58144
2017-09-21T09:47:50.674Z,60640
2017-09-21T09:48:50.827Z,55488
2017-09-21T09:49:50.783Z,52896
2017-09-21T09:50:50.888Z,54016
2017-09-21T09:52:50.830Z,83328
2017-09-21T09:53:50.871Z,63616
2017-09-21T09:54:50.866Z,53952
2017-09-21T09:55:50.855Z,56224
2017-09-21T09:56:50.789Z,70720
2017-09-21T09:57:50.833Z,58944
2017-09-21T09:58:50.804Z,55104
2017-09-21T09:59:50.778Z,62880
2017-09-21T10:00:50.835Z,60192
2017-09-21T10:01:50.791Z,82752
2017-09-21T10:02:50.838Z,118464
2017-09-21T10:03:50.855Z,105792
2017-09-21T10:04:50.841Z,123968
2017-09-21T10:05:50.791Z,75680
2017-09-21T10:06:50.786Z,101888
2017-09-21T10:07:50.821Z,63808
2017-09-21T10:08:50.846Z,58944
2017-09-21T10:09:50.907Z,103744
2017-09-21T10:10:50.919Z,87840
2017-09-21T10:11:50.850Z,112864
2017-09-21T10:12:50.873Z,77248
2017-09-21T10:13:50.857Z,109152
2017-09-21T10:14:50.831Z,78016
2017-09-21T10:15:50.903Z,81056
2017-09-21T10:16:50.898Z,83008
2017-09-21T10:17:50.853Z,76992
2017-09-21T10:18:50.810Z,77824
2017-09-21T10:19:50.813Z,89728
2017-09-21T10:20:50.788Z,112320
2017-09-21T10:21:50.794Z,118592
2017-09-21T10:22:50.788Z,117952
2017-09-21T10:23:50.767Z,107360
2017-09-21T10:24:50.826Z,113888
2017-09-21T10:25:50.797Z,107840
2017-09-21T10:26:50.814Z,108544
2017-09-21T10:27:50.792Z,108288
2017-09-21T10:28:50.858Z,109792
2017-09-21T10:29:51.017Z,89600
2017-09-21T10:30:50.877Z,104896
2017-09-21T10:31:50.837Z,110368
2017-09-21T10:32:50.905Z,108768
2017-09-21T10:33:50.860Z,107040
2017-09-21T10:34:50.856Z,105536
2017-09-21T10:35:50.866Z,105792
2017-09-21T10:36:50.859Z,107072
2017-09-21T10:37:50.907Z,111680
2017-09-21T10:38:50.907Z,113600
2017-09-21T10:39:50.905Z,111392
2017-09-21T10:40:50.814Z,111968
2017-09-21T10:41:50.858Z,112096
2017-09-21T10:42:50.912Z,111712
2017-09-21T10:43:50.866Z,109216
2017-09-21T10:44:50.894Z,107328
2017-09-21T10:45:50.812Z,106112
2017-09-21T10:46:50.814Z,109856
2017-09-21T10:47:50.834Z,113760
2017-09-21T10:48:50.938Z,110912
2017-09-21T10:49:50.872Z,107936
2017-09-21T10:50:50.918Z,108256
2017-09-21T10:51:50.853Z,109088
2017-09-21T10:52:50.922Z,109632
2017-09-21T10:53:50.870Z,112352
2017-09-21T10:54:50.947Z,113728
2017-09-21T10:55:50.853Z,115360
2017-09-21T10:56:50.946Z,113856
2017-09-21T10:57:50.924Z,112608
2017-09-21T10:58:50.947Z,111968
2017-09-21T10:59:50.920Z,112064
2017-09-21T11:00:50.949Z,113152
2017-09-21T11:01:50.904Z,114016
2017-09-21T11:02:50.898Z,116384
2017-09-21T11:03:50.844Z,118496
2017-09-21T11:04:50.878Z,113472
2017-09-21T11:05:50.929Z,110176
2017-09-21T11:06:50.881Z,104768
2017-09-21T11:07:50.880Z,101696
2017-09-21T11:08:50.899Z,101024
2017-09-21T11:09:50.930Z,102272
2017-09-21T11:10:50.897Z,106400
2017-09-21T11:11:50.837Z,108672
2017-09-21T11:12:50.959Z,109696
2017-09-21T11:13:50.928Z,108800
2017-09-21T11:14:50.887Z,107136
2017-09-21T11:15:50.935Z,105792
2017-09-21T11:16:50.935Z,106624
2017-09-21T11:17:50.936Z,108160
2017-09-21T11:18:50.880Z,112192
2017-09-21T11:19:50.897Z,115968
2017-09-21T11:20:50.880Z,116032
2017-09-21T11:21:50.866Z,114368
2017-09-21T11:22:50.852Z,111424
2017-09-21T11:23:50.868Z,111680
2017-09-21T11:24:50.922Z,112544
2017-09-21T11:25:50.934Z,113568
2017-09-21T11:26:50.926Z,116384
2017-09-21T11:27:50.862Z,118144
2017-09-21T11:28:50.893Z,118528
2017-09-21T11:29:50.837Z,118400
2017-09-21T11:30:50.861Z,118240
2017-09-21T11:31:50.860Z,117504
2017-09-21T11:32:50.832Z,115232
2017-09-21T11:33:50.866Z,115008
2017-09-21T11:34:50.867Z,114496
2017-09-21T11:35:50.863Z,113792
2017-09-21T11:36:50.858Z,111776
2017-09-21T11:37:50.864Z,109760
2017-09-21T11:38:50.945Z,110304
2017-09-21T11:39:50.863Z,111360
2017-09-21T11:40:50.907Z,112800
2017-09-21T11:41:50.864Z,110432
2017-09-21T11:42:50.910Z,109344
2017-09-21T11:43:50.940Z,110016
2017-09-21T11:44:50.847Z,108672
2017-09-21T11:45:50.938Z,109376
2017-09-21T11:46:50.868Z,110816
2017-09-21T11:47:50.915Z,112256
2017-09-21T11:48:50.872Z,111648
2017-09-21T11:49:50.905Z,109920
2017-09-21T11:50:50.949Z,106688
2017-09-21T11:51:50.909Z,107552
2017-09-21T11:52:50.857Z,108256
2017-09-21T11:53:50.912Z,109024
2017-09-21T11:54:50.858Z,109568
2017-09-21T11:55:50.979Z,111520
2017-09-21T11:56:50.955Z,102688
2017-09-21T11:57:50.880Z,105056
2017-09-21T11:58:50.848Z,87232
2017-09-21T11:59:50.881Z,51072
2017-09-21T12:00:50.848Z,86176
2017-09-21T12:01:50.873Z,83264
2017-09-21T12:02:50.884Z,104704
2017-09-21T12:03:50.913Z,107424
2017-09-21T12:04:50.881Z,109792
2017-09-21T12:05:50.856Z,112064
2017-09-21T12:06:50.885Z,112736
2017-09-21T12:07:50.872Z,110944
2017-09-21T12:08:50.950Z,112032
2017-09-21T12:09:50.930Z,108960
2017-09-21T12:10:50.983Z,108288
2017-09-21T12:11:50.917Z,110432
2017-09-21T12:12:50.963Z,110912
2017-09-21T12:13:50.970Z,111232
2017-09-21T12:14:50.883Z,104352
2017-09-21T12:15:50.973Z,103808
2017-09-21T12:16:50.915Z,103744
2017-09-21T12:17:50.979Z,106848
2017-09-21T12:18:50.922Z,106912
2017-09-21T12:19:50.967Z,106560
2017-09-21T12:20:50.860Z,105792
2017-09-21T12:21:50.860Z,102816
2017-09-21T12:22:50.859Z,106080
2017-09-21T12:23:50.862Z,103584
2017-09-21T12:24:50.861Z,106656
2017-09-21T12:25:50.930Z,108192
2017-09-21T12:26:50.892Z,107168
2017-09-21T12:27:50.897Z,105952
2017-09-21T12:28:50.928Z,103104
2017-09-21T12:29:50.929Z,102016
2017-09-21T12:30:50.866Z,101568
2017-09-21T12:31:50.865Z,104224
2017-09-21T12:32:50.868Z,103296
2017-09-21T12:33:50.867Z,101760
2017-09-21T12:34:50.936Z,101536
2017-09-21T12:35:50.936Z,100384
2017-09-21T12:36:50.869Z,99936
2017-09-21T12:37:50.875Z,101120
2017-09-21T12:38:50.891Z,100576
2017-09-21T12:39:50.954Z,100800
2017-09-21T12:40:50.986Z,100992
2017-09-21T12:41:50.987Z,97088
2017-09-21T12:42:50.986Z,99392
2017-09-21T12:43:50.909Z,96192
2017-09-21T12:44:50.987Z,95680
2017-09-21T12:45:50.941Z,95616
2017-09-21T12:46:50.986Z,96192
2017-09-21T12:47:50.893Z,94752
2017-09-21T12:48:50.942Z,94336
2017-09-21T12:49:50.880Z,94592
2017-09-21T12:50:50.943Z,94304
2017-09-21T12:51:50.906Z,94848
2017-09-21T12:52:50.911Z,94336
2017-09-21T12:53:50.880Z,94848
2017-09-21T12:54:50.895Z,94368
2017-09-21T12:55:50.947Z,95264
2017-09-21T12:56:50.914Z,97376
2017-09-21T12:57:50.992Z,98944
2017-09-21T12:58:50.889Z,99776
2017-09-21T12:59:50.952Z,98720
2017-09-21T13:00:50.950Z,96640
2017-09-21T13:01:50.884Z,94880
2017-09-21T13:02:50.953Z,93792
2017-09-21T13:03:50.887Z,95072
2017-09-21T13:04:50.973Z,96608
2017-09-21T13:05:50.889Z,95168
2017-09-21T13:06:50.886Z,93568
2017-09-21T13:07:50.968Z,93408
2017-09-21T13:08:50.998Z,93376
2017-09-21T13:09:50.900Z,93184
2017-09-21T13:10:50.955Z,94336
2017-09-21T13:11:50.902Z,94080
2017-09-21T13:12:50.961Z,92640
2017-09-21T13:13:50.903Z,91712
2017-09-21T13:14:51.002Z,90912
2017-09-21T13:15:50.907Z,89952
2017-09-21T13:16:50.959Z,87872
2017-09-21T13:17:51.026Z,90816
2017-09-21T13:18:50.892Z,89344
2017-09-21T13:19:50.894Z,87360
2017-09-21T13:20:50.956Z,87136
2017-09-21T13:21:50.896Z,87328
2017-09-21T13:22:50.962Z,87776
2017-09-21T13:23:50.956Z,87808
2017-09-21T13:24:50.958Z,87840
2017-09-21T13:25:50.962Z,87360
2017-09-21T13:26:50.926Z,85728
2017-09-21T13:27:50.900Z,84448
2017-09-21T13:28:50.968Z,85152
2017-09-21T13:29:50.967Z,86400
2017-09-21T13:30:51.013Z,87936
2017-09-21T13:31:50.979Z,88288
2017-09-21T13:32:50.925Z,87712